createdAt,value
2017-09-03T00:00:21.540Z,94.10
2017-09-03T00:02:49.004Z,94.20
2017-09-03T00:05:17.253Z,94.50
2017-09-03T00:07:44.756Z,94.50
2017-09-03T00:10:12.313Z,94.70
2017-09-03T00:12:39.935Z,94.70
2017-09-03T00:17:33.176Z,94.70
2017-09-03T00:20:00.685Z,94.90
2017-09-03T00:22:28.144Z,94.90
2017-09-03T00:24:55.603Z,94.80
2017-09-03T00:27:23.299Z,94.90
2017-09-03T00:29:50.760Z,95.30
2017-09-03T00:32:18.294Z,95.50
2017-09-03T00:34:45.837Z,95.30
2017-09-03T00:37:14.078Z,95.50
2017-09-03T00:39:41.588Z,95.50
2017-09-03T00:42:09.076Z,95.50
2017-09-03T00:44:37.311Z,96.00
2017-09-03T00:47:04.879Z,96.00
2017-09-03T00:49:32.424Z,95.80
2017-09-03T00:51:59.879Z,95.70
2017-09-03T00:54:27.412Z,95.60
2017-09-03T00:56:54.901Z,95.60
2017-09-03T00:59:22.360Z,96.10
2017-09-03T01:01:49.836Z,95.80
2017-09-03T01:04:17.311Z,96.00
2017-09-03T01:06:44.925Z,95.90
2017-09-03T01:09:12.388Z,96.00
2017-09-03T01:11:39.852Z,96.50
2017-09-03T01:14:07.332Z,96.30
2017-09-03T01:16:34.892Z,96.60
2017-09-03T01:19:02.360Z,96.40
2017-09-03T01:21:30.724Z,96.30
2017-09-03T01:23:58.268Z,96.30
2017-09-03T01:26:26.527Z,96.50
2017-09-03T01:28:54.251Z,96.50
2017-09-03T01:31:21.816Z,96.60
2017-09-03T01:33:49.291Z,96.50
2017-09-03T01:36:16.804Z,96.40
2017-09-03T01:38:44.361Z,96.50
2017-09-03T01:41:11.888Z,96.50
2017-09-03T01:43:39.441Z,96.50
2017-09-03T01:46:06.896Z,96.70
2017-09-03T01:48:34.422Z,96.80
2017-09-03T01:51:01.924Z,97.00
2017-09-03T01:53:29.399Z,96.90
2017-09-03T01:55:56.869Z,96.90
2017-09-03T01:58:24.593Z,97.00
2017-09-03T02:00:52.061Z,96.90
2017-09-03T02:03:19.541Z,96.90
2017-09-03T02:05:47.040Z,97.00
2017-09-03T02:08:14.565Z,97.20
2017-09-03T02:10:42.816Z,96.90
2017-09-03T02:13:10.292Z,96.80
2017-09-03T02:15:37.758Z,96.80
2017-09-03T02:18:05.220Z,96.90
2017-09-03T02:20:32.712Z,96.80
2017-09-03T02:23:00.203Z,96.90
2017-09-03T02:25:28.431Z,97.40
2017-09-03T02:27:56.004Z,97.00
2017-09-03T02:30:23.472Z,97.00
2017-09-03T02:32:50.997Z,97.60
2017-09-03T02:35:18.483Z,97.30
2017-09-03T02:37:45.955Z,97.30
2017-09-03T02:40:13.429Z,97.00
2017-09-03T02:42:40.908Z,97.20
2017-09-03T02:45:08.371Z,97.20
2017-09-03T02:47:35.833Z,97.60
2017-09-03T02:50:03.492Z,97.40
2017-09-03T02:52:30.951Z,97.30
2017-09-03T02:54:58.477Z,97.40
2017-09-03T02:57:26.733Z,97.50
2017-09-03T02:59:54.206Z,97.20
2017-09-03T03:02:21.718Z,97.00
2017-09-03T03:04:49.268Z,97.20
2017-09-03T03:07:17.515Z,97.50
2017-09-03T03:09:45.017Z,97.50
2017-09-03T03:12:12.477Z,97.60
2017-09-03T03:14:39.950Z,97.40
2017-09-03T03:17:07.628Z,97.30
2017-09-03T03:19:35.085Z,97.40
2017-09-03T03:22:02.624Z,97.50
2017-09-03T03:24:30.110Z,97.90
2017-09-03T03:26:57.604Z,97.80
2017-09-03T03:29:25.063Z,97.80
2017-09-03T03:31:52.544Z,97.90
2017-09-03T03:34:20.031Z,97.90
2017-09-03T03:36:47.492Z,97.80
2017-09-03T03:39:14.976Z,97.90
2017-09-03T03:41:42.457Z,97.80
2017-09-03T03:44:10.699Z,98.00
2017-09-03T03:46:38.255Z,97.90
2017-09-03T03:49:05.804Z,98.10
2017-09-03T03:51:33.348Z,98.30
2017-09-03T03:54:00.889Z,98.40
2017-09-03T03:56:28.341Z,98.30
2017-09-03T03:58:56.588Z,98.40
2017-09-03T04:01:24.060Z,98.80
2017-09-03T04:03:51.576Z,98.40
2017-09-03T04:06:19.052Z,98.30
2017-09-03T04:08:46.555Z,98.30
2017-09-03T04:11:14.109Z,98.30
2017-09-03T04:13:41.598Z,98.20
2017-09-03T04:16:09.051Z,98.40
2017-09-03T04:18:36.524Z,98.30
2017-09-03T04:21:04.204Z,98.40
2017-09-03T04:23:31.660Z,98.30
2017-09-03T04:25:59.197Z,98.30
2017-09-03T04:28:26.700Z,98.30
2017-09-03T04:30:54.181Z,98.20
2017-09-03T04:33:21.719Z,98.40
2017-09-03T04:35:49.270Z,98.40
2017-09-03T04:38:16.735Z,98.40
2017-09-03T04:40:44.354Z,98.20
2017-09-03T04:43:11.907Z,98.30
2017-09-03T04:45:39.361Z,98.20
2017-09-03T04:48:06.880Z,98.10
2017-09-03T04:50:34.425Z,98.80
2017-09-03T04:53:01.876Z,99.10
2017-09-03T04:55:29.407Z,98.90
2017-09-03T04:57:56.947Z,99.30
2017-09-03T05:00:24.403Z,99.30
2017-09-03T05:02:51.935Z,99.20
2017-09-03T05:05:19.400Z,99.30
2017-09-03T05:07:46.916Z,99.20
2017-09-03T05:10:14.376Z,99.30
2017-09-03T05:12:41.827Z,99.40
2017-09-03T05:15:09.347Z,99.60
2017-09-03T05:17:36.819Z,99.60
2017-09-03T05:20:04.332Z,99.60
2017-09-03T05:22:31.837Z,99.70
2017-09-03T05:24:59.319Z,99.80
2017-09-03T05:27:26.775Z,99.90
2017-09-03T05:29:54.309Z,99.70
2017-09-03T05:32:21.863Z,99.90
2017-09-03T05:34:49.392Z,99.80
2017-09-03T05:37:16.892Z,99.40
2017-09-03T05:39:44.383Z,99.70
2017-09-03T05:42:11.855Z,99.80
2017-09-03T05:44:39.569Z,99.90
2017-09-03T05:47:07.111Z,99.90
2017-09-03T05:49:34.655Z,99.90
2017-09-03T05:52:02.125Z,99.90
2017-09-03T05:54:29.588Z,99.90
2017-09-03T05:56:57.084Z,99.90
2017-09-03T05:59:24.629Z,99.90
2017-09-03T06:01:52.088Z,99.90
2017-09-03T06:04:19.575Z,99.90
2017-09-03T06:06:47.045Z,99.90
2017-09-03T06:09:14.521Z,99.90
2017-09-03T06:11:42.041Z,99.90
2017-09-03T06:14:09.504Z,99.90
2017-09-03T06:16:37.024Z,99.90
2017-09-03T06:19:04.569Z,99.90
2017-09-03T06:21:32.072Z,99.90
2017-09-03T06:23:59.620Z,99.90
2017-09-03T06:26:27.112Z,99.90
2017-09-03T06:28:54.601Z,99.90
2017-09-03T06:31:22.060Z,99.90
2017-09-03T06:33:49.583Z,99.90
2017-09-03T06:36:17.133Z,99.90
2017-09-03T06:38:44.599Z,99.90
2017-09-03T06:41:12.937Z,99.90
2017-09-03T06:43:40.475Z,99.90
2017-09-03T06:46:07.948Z,99.90
2017-09-03T06:48:35.416Z,99.90
2017-09-03T06:51:02.881Z,99.90
2017-09-03T06:53:30.338Z,99.90
2017-09-03T06:55:57.871Z,99.90
2017-09-03T06:58:25.432Z,99.90
2017-09-03T07:00:52.887Z,99.90
2017-09-03T07:03:20.519Z,99.90
2017-09-03T07:05:47.980Z,99.90
2017-09-03T07:08:15.512Z,99.90
2017-09-03T07:10:43.740Z,99.90
2017-09-03T07:13:11.310Z,99.90
2017-09-03T07:15:38.852Z,99.60
2017-09-03T07:18:06.313Z,99.60
2017-09-03T07:20:33.776Z,99.60
2017-09-03T07:23:01.235Z,98.90
2017-09-03T07:25:28.720Z,98.80
2017-09-03T07:27:56.217Z,99.00
2017-09-03T07:30:23.671Z,99.30
2017-09-03T07:32:51.126Z,99.20
2017-09-03T07:35:18.680Z,99.20
2017-09-03T07:37:46.138Z,98.70
2017-09-03T07:40:13.599Z,98.80
2017-09-03T07:42:41.412Z,98.30
2017-09-03T07:45:08.866Z,98.40
2017-09-03T07:47:36.404Z,98.20
2017-09-03T07:50:03.908Z,97.50
2017-09-03T07:52:31.392Z,97.50
2017-09-03T07:54:58.927Z,97.30
2017-09-03T07:57:26.396Z,97.20
2017-09-03T07:59:53.912Z,96.90
2017-09-03T08:02:21.375Z,96.20
2017-09-03T08:04:49.624Z,95.90
2017-09-03T08:07:17.076Z,95.80
2017-09-03T08:09:44.611Z,95.80
2017-09-03T08:12:12.132Z,95.40
2017-09-03T08:14:39.792Z,95.70
2017-09-03T08:17:07.269Z,95.00
2017-09-03T08:19:34.716Z,94.80
2017-09-03T08:22:02.304Z,93.80
2017-09-03T08:24:29.760Z,93.30
2017-09-03T08:26:57.220Z,94.30
2017-09-03T08:29:24.805Z,93.60
2017-09-03T08:31:52.667Z,93.60
2017-09-03T08:34:20.137Z,94.20
2017-09-03T08:36:47.683Z,94.70
2017-09-03T08:39:15.281Z,95.10
2017-09-03T08:41:42.767Z,94.60
2017-09-03T08:44:10.336Z,93.20
2017-09-03T08:46:37.805Z,92.80
2017-09-03T08:49:05.600Z,92.80
2017-09-03T08:51:33.143Z,93.40
2017-09-03T08:54:00.604Z,92.70
2017-09-03T08:56:28.344Z,92.60
2017-09-03T08:58:55.876Z,93.40
2017-09-03T09:01:23.336Z,93.70
2017-09-03T09:03:50.948Z,93.20
2017-09-03T09:06:18.507Z,92.50
2017-09-03T09:08:46.053Z,92.10
2017-09-03T09:11:13.708Z,92.60
2017-09-03T09:13:41.160Z,91.50
2017-09-03T09:16:08.704Z,91.90
2017-09-03T09:18:36.243Z,91.70
2017-09-03T09:21:03.720Z,90.80
2017-09-03T09:23:31.976Z,87.30
2017-09-03T09:25:59.428Z,87.30
2017-09-03T09:28:26.879Z,85.10
2017-09-03T09:30:54.344Z,84.80
2017-09-03T09:33:21.924Z,84.70
2017-09-03T09:35:49.376Z,85.40
2017-09-03T09:38:16.828Z,81.00
2017-09-03T09:40:44.553Z,79.90
2017-09-03T09:43:12.112Z,81.50
2017-09-03T09:45:39.561Z,81.80
2017-09-03T09:48:07.036Z,84.70
2017-09-03T09:50:34.497Z,81.00
2017-09-03T09:53:01.956Z,79.80
2017-09-03T09:55:29.435Z,81.60
2017-09-03T09:57:56.883Z,79.70
2017-09-03T10:00:24.333Z,76.00
2017-09-03T10:02:51.864Z,74.90
2017-09-03T10:05:19.404Z,72.50
2017-09-03T10:07:46.951Z,73.00
2017-09-03T10:10:14.492Z,71.20
2017-09-03T10:12:42.036Z,70.10
2017-09-03T10:15:09.584Z,72.50
2017-09-03T10:17:37.124Z,74.90
2017-09-03T10:20:04.623Z,70.10
2017-09-03T10:22:32.112Z,70.70
2017-09-03T10:24:59.656Z,72.70
2017-09-03T10:27:27.240Z,67.50
2017-09-03T10:29:54.712Z,65.50
2017-09-03T10:32:22.180Z,65.40
2017-09-03T10:34:49.690Z,65.20
2017-09-03T10:37:17.104Z,63.80
2017-09-03T10:39:44.608Z,67.50
2017-09-03T10:42:12.121Z,59.80
2017-09-03T10:44:39.588Z,60.20
2017-09-03T10:47:07.132Z,60.80
2017-09-03T10:49:34.597Z,60.40
2017-09-03T10:52:02.292Z,60.30
2017-09-03T10:54:29.740Z,60.00
2017-09-03T10:56:57.188Z,60.60
2017-09-03T10:59:24.764Z,60.90
2017-09-03T11:01:52.308Z,58.80
2017-09-03T11:04:19.851Z,59.60
2017-09-03T11:06:47.499Z,58.10
2017-09-03T11:09:14.943Z,57.70
2017-09-03T11:11:42.412Z,58.40
2017-09-03T11:14:10.127Z,58.20
2017-09-03T11:16:37.584Z,59.30
2017-09-03T11:19:05.127Z,60.10
2017-09-03T11:21:32.591Z,62.30
2017-09-03T11:24:00.036Z,60.30
2017-09-03T11:26:27.551Z,59.60
2017-09-03T11:28:55.010Z,61.00
2017-09-03T11:31:22.460Z,61.80
2017-09-03T11:33:49.947Z,60.40
2017-09-03T11:36:17.424Z,60.90
2017-09-03T11:38:44.964Z,58.30
2017-09-03T11:41:12.608Z,55.40
2017-09-03T11:43:40.063Z,51.20
2017-09-03T11:46:07.512Z,48.40
2017-09-03T11:48:34.971Z,45.20
2017-09-03T11:51:02.477Z,43.20
2017-09-03T11:53:30.119Z,38.80
2017-09-03T11:55:57.579Z,35.70
2017-09-03T11:58:25.033Z,36.50
2017-09-03T12:00:52.543Z,33.00
2017-09-03T12:03:20.203Z,35.70
2017-09-03T12:05:47.703Z,36.40
2017-09-03T12:08:15.152Z,37.90
2017-09-03T12:10:42.620Z,38.90
2017-09-03T12:13:10.103Z,37.20
2017-09-03T12:15:37.559Z,35.70
2017-09-03T12:18:05.011Z,34.70
2017-09-03T12:20:32.652Z,37.10
2017-09-03T12:23:00.165Z,38.80
2017-09-03T12:25:27.704Z,39.40
2017-09-03T12:27:55.244Z,40.40
2017-09-03T12:30:22.704Z,41.90
2017-09-03T12:32:50.241Z,43.50
2017-09-03T12:35:17.788Z,41.80
2017-09-03T12:37:45.328Z,43.60
2017-09-03T12:40:12.885Z,43.70
2017-09-03T12:42:40.411Z,44.80
2017-09-03T12:45:07.956Z,43.00
2017-09-03T12:47:35.505Z,42.10
2017-09-03T12:50:03.044Z,37.40
2017-09-03T12:52:30.634Z,36.20
2017-09-03T12:54:58.104Z,31.80
2017-09-03T12:57:25.567Z,31.00
2017-09-03T12:59:53.085Z,28.10
2017-09-03T13:02:20.540Z,27.80
2017-09-03T13:04:48.004Z,28.20
2017-09-03T13:07:15.543Z,29.90
2017-09-03T13:09:43.019Z,32.20
2017-09-03T13:12:10.587Z,34.40
2017-09-03T13:14:38.068Z,33.50
2017-09-03T13:17:05.516Z,32.10
2017-09-03T13:19:33.060Z,29.40
2017-09-03T13:22:00.608Z,29.20
2017-09-03T13:24:28.064Z,28.10
2017-09-03T13:26:55.524Z,28.00
2017-09-03T13:29:22.971Z,27.40
2017-09-03T13:31:50.489Z,27.90
2017-09-03T13:34:18.021Z,29.60
2017-09-03T13:36:45.559Z,28.90
2017-09-03T13:39:13.017Z,29.00
2017-09-03T13:41:40.472Z,29.40
2017-09-03T13:44:08.100Z,28.10
2017-09-03T13:46:35.590Z,29.60
2017-09-03T13:49:03.028Z,30.80
2017-09-03T13:51:30.721Z,32.00
2017-09-03T13:53:58.263Z,31.60
2017-09-03T13:56:25.820Z,31.80
2017-09-03T13:58:53.453Z,34.00
2017-09-03T14:01:20.904Z,30.30
2017-09-03T14:03:48.360Z,29.80
2017-09-03T14:06:16.088Z,28.90
2017-09-03T14:08:43.548Z,28.60
2017-09-03T14:11:11.007Z,29.40
2017-09-03T14:13:38.725Z,29.90
2017-09-03T14:16:06.261Z,31.70
2017-09-03T14:18:33.760Z,33.00
2017-09-03T14:21:01.253Z,34.30
2017-09-03T14:23:28.748Z,34.40
2017-09-03T14:25:56.199Z,35.90
2017-09-03T14:28:23.700Z,36.40
2017-09-03T14:30:51.243Z,37.80
2017-09-03T14:33:18.785Z,39.00
2017-09-03T14:35:46.248Z,37.80
2017-09-03T14:38:13.716Z,36.70
2017-09-03T14:40:41.220Z,36.60
2017-09-03T14:43:08.760Z,33.90
2017-09-03T14:45:36.209Z,35.00
2017-09-03T14:48:03.948Z,31.00
2017-09-03T14:50:31.396Z,28.20
2017-09-03T14:52:58.925Z,26.70
2017-09-03T14:55:26.468Z,26.60
2017-09-03T14:57:54.008Z,26.20
2017-09-03T15:00:21.556Z,24.20
2017-09-03T15:02:49.021Z,26.30
2017-09-03T15:05:16.492Z,24.60
2017-09-03T15:07:43.947Z,25.30
2017-09-03T15:10:11.654Z,26.20
2017-09-03T15:12:39.173Z,27.40
2017-09-03T15:15:06.708Z,28.80
2017-09-03T15:17:34.268Z,28.00
2017-09-03T15:20:01.724Z,28.10
2017-09-03T15:22:29.176Z,27.60
2017-09-03T15:24:56.636Z,27.80
2017-09-03T15:27:24.122Z,26.50
2017-09-03T15:29:51.577Z,25.80
2017-09-03T15:32:19.178Z,25.90
2017-09-03T15:34:46.880Z,25.90
2017-09-03T15:37:14.428Z,24.60
2017-09-03T15:39:41.969Z,23.10
2017-09-03T15:42:09.525Z,23.20
2017-09-03T15:44:37.000Z,23.90
2017-09-03T15:47:04.500Z,23.60
2017-09-03T15:49:32.048Z,23.20
2017-09-03T15:51:59.599Z,23.80
2017-09-03T15:54:27.631Z,23.70
2017-09-03T15:56:55.247Z,23.70
2017-09-03T15:59:22.711Z,24.80
2017-09-03T16:01:50.399Z,25.90
2017-09-03T16:04:17.931Z,26.80
2017-09-03T16:06:45.486Z,28.40
2017-09-03T16:09:12.964Z,28.60
2017-09-03T16:11:40.426Z,29.10
2017-09-03T16:14:07.877Z,28.10
2017-09-03T16:16:35.356Z,26.50
2017-09-03T16:19:02.891Z,27.40
2017-09-03T16:21:30.437Z,26.90
2017-09-03T16:23:57.978Z,27.30
2017-09-03T16:26:25.432Z,26.90
2017-09-03T16:28:53.008Z,26.40
2017-09-03T16:31:20.561Z,25.60
2017-09-03T16:33:48.013Z,25.40
2017-09-03T16:36:15.583Z,26.90
2017-09-03T16:38:43.036Z,24.90
2017-09-03T16:41:10.489Z,25.50
2017-09-03T16:43:38.145Z,25.90
2017-09-03T16:46:05.687Z,24.50
2017-09-03T16:48:33.144Z,25.80
2017-09-03T16:51:00.876Z,26.00
2017-09-03T16:53:28.338Z,26.60
2017-09-03T16:55:55.791Z,26.70
2017-09-03T16:58:23.258Z,26.60
2017-09-03T17:00:50.732Z,27.50
2017-09-03T17:03:18.219Z,28.50
2017-09-03T17:05:45.700Z,28.60
2017-09-03T17:08:14.108Z,28.60
2017-09-03T17:10:41.774Z,28.50
2017-09-03T17:13:09.227Z,29.40
2017-09-03T17:15:36.750Z,29.60
2017-09-03T17:18:04.204Z,30.00
2017-09-03T17:20:33.933Z,30.70
2017-09-03T17:23:01.520Z,31.30
2017-09-03T17:25:29.739Z,33.30
2017-09-03T17:27:57.228Z,33.30
2017-09-03T17:30:25.601Z,34.10
2017-09-03T17:32:53.057Z,34.50
2017-09-03T17:38:34.709Z,37.50
2017-09-03T17:41:03.800Z,38.30
2017-09-03T17:43:32.057Z,39.70
2017-09-03T17:45:59.536Z,41.40
2017-09-03T17:48:26.984Z,45.30
2017-09-03T17:50:54.431Z,45.30
2017-09-03T17:53:21.903Z,46.80
2017-09-03T17:55:49.355Z,47.20
2017-09-03T17:58:16.821Z,48.60
2017-09-03T18:00:44.305Z,49.80
2017-09-03T18:03:11.748Z,51.40
2017-09-03T18:05:39.195Z,52.80
2017-09-03T18:08:06.672Z,52.90
2017-09-03T18:10:34.115Z,54.00
2017-09-03T18:13:01.564Z,54.80
2017-09-03T18:15:29.044Z,55.50
2017-09-03T18:17:56.497Z,55.70
2017-09-03T18:20:23.952Z,56.40
2017-09-03T18:22:51.416Z,58.00
2017-09-03T18:25:18.871Z,60.10
2017-09-03T18:27:46.319Z,61.00
2017-09-03T18:30:16.752Z,61.30
2017-09-03T18:32:44.202Z,61.20
2017-09-03T18:35:14.160Z,62.00
2017-09-03T18:37:42.114Z,61.30
2017-09-03T18:40:10.352Z,62.30
2017-09-03T18:42:42.848Z,64.60
2017-09-03T18:45:10.291Z,64.80
2017-09-03T18:47:37.736Z,65.00
2017-09-03T18:50:08.184Z,65.90
2017-09-03T18:52:52.351Z,65.90
2017-09-03T18:55:19.804Z,66.50
2017-09-03T19:00:48.744Z,68.60
2017-09-03T19:03:17.216Z,69.20
2017-09-03T19:05:44.668Z,70.00
2017-09-03T19:08:12.332Z,70.90
2017-09-03T19:10:40.184Z,71.00
2017-09-03T19:13:07.624Z,71.60
2017-09-03T19:15:35.080Z,70.80
2017-09-03T19:18:02.532Z,71.60
2017-09-03T19:20:29.988Z,72.10
2017-09-03T19:22:58.204Z,72.30
2017-09-03T19:25:25.884Z,72.30
2017-09-03T19:27:53.439Z,73.20
2017-09-03T19:30:20.895Z,74.20
2017-09-03T19:32:48.996Z,74.10
2017-09-03T19:35:16.454Z,74.40
2017-09-03T19:37:43.904Z,74.60
2017-09-03T19:40:11.384Z,75.10
2017-09-03T19:42:38.913Z,75.10
2017-09-03T19:45:06.447Z,75.50
2017-09-03T19:47:33.915Z,76.00
2017-09-03T19:50:01.399Z,76.50
2017-09-03T19:52:28.949Z,77.20
2017-09-03T19:54:56.493Z,77.20
2017-09-03T19:57:24.135Z,78.80
2017-09-03T19:59:51.588Z,79.10
2017-09-03T20:02:19.039Z,79.30
2017-09-03T20:04:46.660Z,79.50
2017-09-03T20:07:14.216Z,79.70
2017-09-03T20:09:41.756Z,80.50
2017-09-03T20:12:09.399Z,80.40
2017-09-03T20:14:36.864Z,80.70
2017-09-03T20:17:04.320Z,81.70
2017-09-03T20:19:31.904Z,82.10
2017-09-03T20:21:59.415Z,82.30
2017-09-03T20:24:26.959Z,82.40
2017-09-03T20:26:54.513Z,82.30
2017-09-03T20:29:22.057Z,82.90
2017-09-03T20:31:49.580Z,83.00
2017-09-03T20:34:17.128Z,83.40
2017-09-03T20:36:44.677Z,84.60
2017-09-03T20:39:12.413Z,84.00
2017-09-03T20:41:39.874Z,85.00
2017-09-03T20:44:07.344Z,83.30
2017-09-03T20:46:34.906Z,83.70
2017-09-03T20:49:02.448Z,83.20
2017-09-03T20:51:29.998Z,84.30
2017-09-03T20:53:57.677Z,84.10
2017-09-03T20:56:25.127Z,84.00
2017-09-03T20:58:52.624Z,84.10
2017-09-03T21:01:20.170Z,84.60
2017-09-03T21:03:47.619Z,85.20
2017-09-03T21:06:15.841Z,85.30
2017-09-03T21:08:43.303Z,85.20
2017-09-03T21:11:10.785Z,85.40
2017-09-03T21:13:38.288Z,86.00
2017-09-03T21:16:05.783Z,85.60
2017-09-03T21:18:33.383Z,86.30
2017-09-03T21:21:00.843Z,85.40
2017-09-03T21:23:28.568Z,85.50
2017-09-03T21:25:56.024Z,84.20
2017-09-03T21:28:23.541Z,83.20
2017-09-03T21:30:51.096Z,83.20
2017-09-03T21:33:18.640Z,83.30
2017-09-03T21:35:46.199Z,83.00
2017-09-03T21:38:13.751Z,83.10
2017-09-03T21:40:41.923Z,83.40
2017-09-03T21:43:09.448Z,84.50
2017-09-03T21:45:36.945Z,85.20
2017-09-03T21:48:04.432Z,86.70
2017-09-03T21:50:31.976Z,86.20
2017-09-03T21:52:59.519Z,86.40
2017-09-03T21:55:26.964Z,87.10
2017-09-03T21:57:54.468Z,86.50
2017-09-03T22:00:22.016Z,86.90
2017-09-03T22:02:49.463Z,87.60
2017-09-03T22:05:17.002Z,87.20
2017-09-03T22:07:44.539Z,87.70
2017-09-03T22:10:12.162Z,88.20
2017-09-03T22:12:39.676Z,88.90
2017-09-03T22:15:07.128Z,88.40
2017-09-03T22:17:34.591Z,88.10
2017-09-03T22:20:02.048Z,88.40
2017-09-03T22:22:29.575Z,88.40
2017-09-03T22:24:57.284Z,88.70
2017-09-03T22:27:24.772Z,88.40
2017-09-03T22:29:52.319Z,88.80
2017-09-03T22:32:19.852Z,89.30
2017-09-03T22:34:48.474Z,89.50
2017-09-03T22:37:16.036Z,89.20
2017-09-03T22:39:43.520Z,89.60
2017-09-03T22:42:10.984Z,89.80
2017-09-03T22:44:38.510Z,90.10
2017-09-03T22:47:06.049Z,90.00
2017-09-03T22:49:33.590Z,90.40
2017-09-03T22:52:01.135Z,90.40
2017-09-03T22:54:30.681Z,90.70
2017-09-03T22:57:00.852Z,90.70
2017-09-03T22:59:33.112Z,91.10
2017-09-03T23:02:01.303Z,91.00
2017-09-03T23:04:29.638Z,91.10
2017-09-03T23:06:57.088Z,91.10
2017-09-03T23:09:24.583Z,91.10
2017-09-03T23:11:52.139Z,91.30
2017-09-03T23:14:20.392Z,91.40
2017-09-03T23:16:48.148Z,91.30
2017-09-03T23:19:15.600Z,91.70
2017-09-03T23:21:43.125Z,91.40
2017-09-03T23:24:10.772Z,91.50
2017-09-03T23:26:38.315Z,91.30
2017-09-03T23:29:05.817Z,91.40
2017-09-03T23:31:33.388Z,91.30
2017-09-03T23:34:00.835Z,91.20
2017-09-03T23:36:28.284Z,91.20
2017-09-03T23:38:55.988Z,91.10
2017-09-03T23:41:23.444Z,91.30
2017-09-03T23:43:50.975Z,91.80
2017-09-03T23:46:18.516Z,91.70
2017-09-03T23:48:45.971Z,91.80
2017-09-03T23:51:13.428Z,91.60
2017-09-03T23:53:40.941Z,91.70
2017-09-03T23:56:08.484Z,91.70
2017-09-03T23:58:35.932Z,91.90
